createdAt,value
2022-08-17T00:04:50.694Z,23.23
2022-08-17T00:10:53.977Z,22.87
2022-08-17T00:16:57.422Z,23.06
2022-08-17T00:23:15.741Z,23.32
2022-08-17T00:29:20.073Z,23.21
2022-08-17T00:35:23.959Z,23.32
2022-08-17T00:41:27.781Z,23.30
2022-08-17T00:47:29.459Z,23.28
2022-08-17T00:53:33.925Z,22.93
2022-08-17T00:59:41.245Z,23.28
2022-08-17T01:05:43.145Z,23.19
2022-08-17T01:11:52.195Z,23.29
2022-08-17T01:17:53.924Z,23.28
2022-08-17T01:23:56.734Z,23.26
2022-08-17T01:30:02.775Z,23.22
2022-08-17T01:36:07.347Z,23.25
2022-08-17T01:42:09.069Z,23.23
2022-08-17T01:48:12.977Z,23.21
2022-08-17T01:54:18.722Z,23.13
2022-08-17T02:00:20.533Z,23.02
2022-08-17T02:06:27.203Z,23.20
2022-08-17T02:12:38.852Z,23.19
2022-08-17T02:18:41.728Z,22.98
2022-08-17T02:24:59.635Z,22.97
2022-08-17T02:31:09.368Z,23.18
2022-08-17T02:37:11.200Z,23.21
2022-08-17T02:43:13.873Z,23.15
2022-08-17T02:49:15.957Z,22.97
2022-08-17T02:55:24.348Z,23.20
2022-08-17T03:01:26.142Z,23.16
2022-08-17T03:07:27.935Z,23.18
2022-08-17T03:13:30.936Z,23.14
2022-08-17T03:19:32.914Z,23.14
2022-08-17T03:25:38.001Z,23.10
2022-08-17T03:31:40.645Z,23.05
2022-08-17T03:37:42.736Z,23.00
2022-08-17T03:43:44.486Z,22.94
2022-08-17T03:50:04.660Z,23.13
2022-08-17T03:56:25.007Z,22.95
2022-08-17T04:02:34.305Z,22.89
2022-08-17T04:08:36.063Z,22.92
2022-08-17T04:14:51.405Z,23.06
2022-08-17T04:20:54.375Z,23.08
2022-08-17T04:26:56.108Z,23.15
2022-08-17T04:33:10.846Z,23.16
2022-08-17T04:39:12.822Z,22.92
2022-08-17T04:45:14.605Z,22.30
2022-08-17T04:51:28.125Z,22.93
2022-08-17T04:57:29.848Z,23.22
2022-08-17T05:03:42.175Z,23.20
2022-08-17T05:09:44.098Z,23.23
2022-08-17T05:15:48.522Z,23.12
2022-08-17T05:21:51.988Z,23.01
2022-08-17T05:27:54.763Z,23.52
2022-08-17T05:33:56.824Z,23.16
2022-08-17T05:39:58.739Z,22.82
2022-08-17T05:46:23.470Z,23.40
2022-08-17T05:52:44.198Z,23.40
2022-08-17T05:59:06.584Z,23.15
2022-08-17T06:05:22.697Z,23.53
2022-08-17T06:11:42.680Z,23.51
2022-08-17T06:17:44.706Z,23.34
2022-08-17T06:23:56.991Z,23.56
2022-08-17T06:30:11.648Z,23.58
2022-08-17T06:36:22.476Z,23.60
2022-08-17T06:43:02.172Z,23.44
2022-08-17T06:49:28.736Z,23.53
2022-08-17T06:55:38.338Z,23.67
2022-08-17T07:01:42.287Z,23.55
2022-08-17T07:08:29.675Z,23.75
2022-08-17T07:15:08.493Z,23.79
2022-08-17T07:21:29.443Z,23.77
2022-08-17T07:27:41.066Z,23.81
2022-08-17T07:34:00.859Z,23.87
2022-08-17T07:40:29.455Z,23.93
2022-08-17T07:47:05.739Z,23.93
2022-08-17T07:53:23.309Z,23.65
2022-08-17T07:59:34.611Z,23.93
2022-08-17T08:05:51.725Z,23.84
2022-08-17T08:11:53.895Z,23.73
2022-08-17T08:17:59.397Z,24.08
2022-08-17T08:24:32.241Z,24.04
2022-08-17T08:30:41.561Z,23.88
2022-08-17T08:37:30.361Z,24.02
2022-08-17T08:43:54.754Z,24.20
2022-08-17T08:50:04.679Z,24.08
2022-08-17T08:56:09.909Z,24.10
2022-08-17T09:02:34.942Z,24.17
2022-08-17T09:08:50.668Z,23.99
2022-08-17T09:15:12.348Z,24.18
2022-08-17T09:21:21.747Z,24.26
2022-08-17T09:27:33.563Z,24.16
2022-08-17T09:33:43.132Z,24.22
2022-08-17T09:39:57.164Z,24.25
2022-08-17T09:46:04.110Z,23.89
2022-08-17T09:52:22.441Z,24.16
2022-08-17T09:58:44.517Z,23.95
2022-08-17T10:05:13.891Z,24.07
2022-08-17T10:12:03.417Z,24.25
2022-08-17T10:18:31.848Z,23.83
2022-08-17T10:25:23.508Z,23.97
2022-08-17T10:31:36.341Z,24.28
2022-08-17T10:38:00.505Z,24.37
2022-08-17T10:44:39.516Z,24.32
2022-08-17T10:50:49.675Z,24.33
2022-08-17T10:56:57.198Z,24.24
2022-08-17T11:02:59.593Z,24.16
2022-08-17T11:09:20.077Z,24.24
2022-08-17T11:15:51.611Z,23.92
2022-08-17T11:22:33.328Z,23.92
2022-08-17T11:28:48.816Z,24.34
2022-08-17T11:35:21.230Z,24.37
2022-08-17T11:41:49.814Z,24.37
2022-08-17T11:48:28.363Z,24.41
2022-08-17T11:54:33.874Z,24.42
2022-08-17T12:00:45.536Z,24.42
2022-08-17T12:07:30.331Z,24.43
2022-08-17T12:13:52.206Z,24.32
2022-08-17T12:19:55.637Z,24.50
2022-08-17T12:26:20.974Z,24.42
2022-08-17T12:32:27.298Z,24.19
2022-08-17T12:38:34.938Z,24.11
2022-08-17T12:44:46.269Z,24.33
2022-08-17T12:50:59.009Z,24.50
2022-08-17T12:57:06.328Z,24.47
2022-08-17T13:03:23.217Z,24.49
2022-08-17T13:09:36.108Z,24.41
2022-08-17T13:15:51.570Z,24.45
2022-08-17T13:21:59.694Z,24.41
2022-08-17T13:28:01.595Z,24.26
2022-08-17T13:34:27.066Z,24.55
2022-08-17T13:40:37.912Z,24.50
2022-08-17T13:46:39.722Z,24.18
2022-08-17T13:52:44.108Z,24.44
2022-08-17T13:59:13.450Z,24.58
2022-08-17T14:05:15.241Z,24.38
2022-08-17T14:11:18.585Z,24.63
2022-08-17T14:17:20.488Z,24.61
2022-08-17T14:23:22.404Z,24.52
2022-08-17T14:29:27.948Z,24.31
2022-08-17T14:35:30.251Z,24.56
2022-08-17T14:41:31.972Z,24.55
2022-08-17T14:47:35.284Z,24.54
2022-08-17T14:53:37.830Z,24.61
2022-08-17T14:59:39.838Z,24.43
2022-08-17T15:05:41.739Z,24.39
2022-08-17T15:11:43.702Z,24.52
2022-08-17T15:17:46.227Z,24.52
2022-08-17T15:23:48.205Z,24.33
2022-08-17T15:29:50.571Z,24.30
2022-08-17T15:35:53.749Z,24.33
2022-08-17T15:41:58.481Z,24.21
2022-08-17T15:48:01.031Z,24.25
2022-08-17T15:54:18.734Z,24.34
2022-08-17T16:00:24.839Z,24.18
2022-08-17T16:06:30.374Z,24.08
2022-08-17T16:12:33.374Z,24.07
2022-08-17T16:18:36.782Z,24.22
2022-08-17T16:24:45.945Z,24.13
2022-08-17T16:30:59.342Z,24.10
2022-08-17T16:37:01.592Z,23.87
2022-08-17T16:43:10.637Z,24.09
2022-08-17T16:49:35.728Z,23.95
2022-08-17T16:55:35.896Z,24.04
2022-08-17T17:01:41.874Z,23.98
2022-08-17T17:07:55.614Z,24.06
2022-08-17T17:14:02.163Z,24.06
2022-08-17T17:20:25.013Z,24.06
2022-08-17T17:26:45.266Z,24.03
2022-08-17T17:32:59.655Z,24.01
2022-08-17T17:39:15.987Z,23.99
2022-08-17T17:45:23.335Z,23.99
2022-08-17T17:52:05.295Z,24.03
2022-08-17T17:58:06.493Z,24.01
2022-08-17T18:04:20.670Z,23.98
2022-08-17T18:10:33.841Z,23.91
2022-08-17T18:16:35.578Z,23.81
2022-08-17T18:22:37.334Z,23.90
2022-08-17T18:28:44.064Z,24.01
2022-08-17T18:34:48.982Z,23.98
2022-08-17T18:41:01.839Z,23.98
2022-08-17T18:47:20.497Z,23.97
2022-08-17T18:53:30.340Z,23.97
2022-08-17T18:59:48.321Z,23.91
2022-08-17T19:05:56.125Z,23.94
2022-08-17T19:11:58.264Z,23.91
2022-08-17T19:18:15.277Z,23.78
2022-08-17T19:24:20.742Z,23.83
2022-08-17T19:30:22.824Z,23.82
2022-08-17T19:36:39.900Z,23.86
2022-08-17T19:42:53.823Z,23.81
2022-08-17T19:49:03.356Z,23.77
2022-08-17T19:55:19.833Z,23.80
2022-08-17T20:01:47.976Z,23.79
2022-08-17T20:08:12.344Z,23.52
2022-08-17T20:14:19.832Z,23.69
2022-08-17T20:20:34.915Z,23.67
2022-08-17T20:26:57.987Z,23.69
2022-08-17T20:33:02.677Z,23.76
2022-08-17T20:39:04.469Z,23.66
2022-08-17T20:45:21.249Z,23.74
2022-08-17T20:51:31.579Z,23.73
2022-08-17T20:57:33.394Z,23.70
2022-08-17T21:03:49.113Z,23.71
2022-08-17T21:09:52.904Z,23.69
2022-08-17T21:16:32.237Z,23.75
2022-08-17T21:23:13.841Z,23.45
2022-08-17T21:29:31.309Z,23.46
2022-08-17T21:36:03.911Z,23.71
2022-08-17T21:42:12.266Z,23.67
2022-08-17T21:48:16.539Z,23.67
2022-08-17T21:54:31.947Z,23.64
2022-08-17T22:00:36.804Z,23.63
2022-08-17T22:06:56.634Z,23.64
2022-08-17T22:13:24.331Z,23.60
2022-08-17T22:19:31.615Z,23.49
2022-08-17T22:25:56.376Z,23.59
2022-08-17T22:31:58.156Z,23.46
2022-08-17T22:38:35.530Z,23.59
2022-08-17T22:44:46.990Z,23.37
2022-08-17T22:51:02.409Z,23.56
2022-08-17T22:57:23.991Z,22.91
2022-08-17T23:03:28.123Z,23.27
2022-08-17T23:09:30.085Z,23.56
2022-08-17T23:15:33.346Z,23.39
2022-08-17T23:21:37.102Z,23.51
2022-08-17T23:27:39.070Z,23.13
2022-08-17T23:33:41.501Z,23.47
2022-08-17T23:39:45.199Z,23.48
2022-08-17T23:45:47.317Z,23.35
2022-08-17T23:51:49.506Z,23.14
2022-08-17T23:57:51.479Z,23.35
